Time;durP1;ratioP1;P1;durP2;ratioP2;P2;SDS_P1;SDS_P2;PMS_P1;PMS_P2;Temp;Humidity;BMP_temperature;BMP_pressure;BME280_temperature;BME280_humidity;BME280_pressure;Samples;Min_cycle;Max_cycle;Signal;HPM_P1;HPM_P2
2022/03/17 00:01:03;;;;;;;;;;;;;;;4.56;96.64;101036.25;6191605;23;19922;-78
2022/03/17 00:03:28;;;;;;;;;;;;;;;4.58;96.01;101028.41;6243143;23;20275;-78
2022/03/17 00:05:53;;;;;;;;;;;;;;;4.59;96.35;101027.25;6243473;23;19915;-78
2022/03/17 00:08:19;;;;;;;;;;;;;;;4.55;95.35;101025.63;6243606;23;20243;-78
2022/03/17 00:10:44;;;;;;;;;;;;;;;4.55;97.06;101028.38;6243593;23;19916;-78
2022/03/17 00:13:11;;;;;;;;;;;;;;;4.55;96.94;101026.44;6243009;23;19965;-78
2022/03/17 00:15:39;;;;;;;;;;;;;;;4.56;96.62;101029.97;6243189;23;19918;-78
2022/03/17 00:18:05;;;;;;;;;;;;;;;4.52;96.57;101035.41;6216819;23;19923;-79
2022/03/17 00:20:30;;;;;;;;;;;;;;;4.52;96.62;101049.16;6216178;23;19912;-78
2022/03/17 00:22:59;;;;;;;;;;;;;;;4.46;97.58;101053.38;6216829;23;20324;-78
2022/03/17 00:25:25;;;;;;;;;;;;;;;4.43;97.07;101058.81;6216180;23;19915;-78
2022/03/17 00:27:51;;;;;;;;;;;;;;;4.40;97.23;101057.63;6216445;23;19942;-79
2022/03/17 00:30:16;;;;;;;;;;;;;;;4.36;97.64;101065.03;6243562;23;19916;-78
2022/03/17 00:32:41;;;;;;;;;;;;;;;4.31;97.19;101070.03;6216551;23;20041;-78
2022/03/17 00:37:51;;;;;;;;;;;;;;;4.23;97.04;101069.94;6245358;23;20333;-78
2022/03/17 00:40:16;;;;;;;;;;;;;;;4.20;97.93;101072.63;6218832;23;19918;-79
2022/03/17 00:42:41;;;;;;;;;;;;;;;4.16;98.19;101069.81;6245246;23;19994;-78
2022/03/17 00:45:09;;;;;;;;;;;;;;;4.17;98.16;101068.63;6218925;23;19916;-78
2022/03/17 00:47:35;;;;;;;;;;;;;;;4.16;98.90;101077.25;6243779;23;19918;-78
2022/03/17 00:50:00;;;;;;;;;;;;;;;4.12;99.98;101076.41;6245798;23;19943;-78
2022/03/17 00:52:26;;;;;;;;;;;;;;;4.11;99.81;101058.34;6218233;23;19919;-78
2022/03/17 00:54:51;;;;;;;;;;;;;;;4.10;100.00;101081.47;6244641;23;20352;-78
2022/03/17 00:57:16;;;;;;;;;;;;;;;4.07;100.00;101082.22;6245217;23;19950;-78
2022/03/17 00:59:42;;;;;;;;;;;;;;;4.06;100.00;101077.88;6245393;23;19927;-78
2022/03/17 01:02:07;;;;;;;;;;;;;;;4.06;100.00;101075.13;6218174;23;19922;-78
2022/03/17 01:04:33;;;;;;;;;;;;;;;4.05;100.00;101077.06;6244834;23;20422;-78
2022/03/17 01:06:59;;;;;;;;;;;;;;;4.07;100.00;101079.47;6245866;23;19938;-78
2022/03/17 01:09:24;;;;;;;;;;;;;;;4.04;100.00;101066.47;6194021;23;19915;-78
2022/03/17 01:11:49;;;;;;;;;;;;;;;4.02;100.00;101061.34;6245237;23;19924;-78
2022/03/17 01:14:15;;;;;;;;;;;;;;;4.04;100.00;101061.00;6245301;23;19922;-79
2022/03/17 01:16:40;;;;;;;;;;;;;;;4.05;100.00;101054.31;6193457;23;19916;-78
2022/03/17 01:19:06;;;;;;;;;;;;;;;4.05;100.00;101054.31;6246260;23;19966;-78
2022/03/17 01:21:32;;;;;;;;;;;;;;;4.01;100.00;101048.78;6244843;23;20018;-78
2022/03/17 01:23:57;;;;;;;;;;;;;;;4.00;100.00;101041.72;6245403;23;19915;-78
2022/03/17 01:26:22;;;;;;;;;;;;;;;3.95;100.00;101043.97;6244629;23;19915;-78
2022/03/17 01:28:48;;;;;;;;;;;;;;;3.91;100.00;101034.88;6245153;23;19995;-78
2022/03/17 01:31:13;;;;;;;;;;;;;;;3.87;100.00;101036.78;6244987;23;20344;-78
2022/03/17 01:33:38;;;;;;;;;;;;;;;3.81;100.00;101050.00;6244883;23;19915;-79
2022/03/17 01:36:04;;;;;;;;;;;;;;;3.79;100.00;101054.28;6245194;23;20304;-78
2022/03/17 01:38:29;;;;;;;;;;;;;;;3.75;100.00;101054.22;6218479;23;20007;-79
2022/03/17 01:40:55;;;;;;;;;;;;;;;3.60;100.00;101053.16;6217988;23;19919;-78
2022/03/17 01:43:20;;;;;;;;;;;;;;;3.47;100.00;101057.28;6245042;23;20229;-79
2022/03/17 01:45:45;;;;;;;;;;;;;;;3.37;100.00;101057.06;6245121;23;20413;-78
2022/03/17 01:48:11;;;;;;;;;;;;;;;3.29;100.00;101056.13;6244998;23;19912;-78
2022/03/17 01:50:36;;;;;;;;;;;;;;;3.26;100.00;101059.59;6244410;23;19923;-78
2022/03/17 01:53:02;;;;;;;;;;;;;;;3.27;100.00;101055.72;6244695;23;19920;-78
2022/03/17 01:55:28;;;;;;;;;;;;;;;3.28;100.00;101049.06;6217674;23;20303;-78
2022/03/17 01:57:53;;;;;;;;;;;;;;;3.26;100.00;101051.38;6217842;23;19994;-79
2022/03/17 02:03:10;;;;;;;;;;;;;;;3.21;100.00;101059.91;6226373;22;19939;-80
2022/03/17 02:05:35;;;;;;;;;;;;;;;3.15;100.00;101062.16;6244614;23;19915;-79
2022/03/17 02:08:01;;;;;;;;;;;;;;;3.10;100.00;101062.44;6244876;23;20404;-79
2022/03/17 02:10:26;;;;;;;;;;;;;;;3.06;100.00;101061.56;6217759;23;19916;-79
2022/03/17 02:13:10;;;;;;;;;;;;;;;2.99;100.00;101066.94;6244876;23;20233;-79
2022/03/17 02:15:36;;;;;;;;;;;;;;;2.91;100.00;101061.66;6244854;23;19919;-79
2022/03/17 02:18:06;;;;;;;;;;;;;;;2.92;100.00;101074.19;6217912;23;19922;-77
2022/03/17 02:20:32;;;;;;;;;;;;;;;2.86;100.00;101070.94;6245166;23;19915;-79
2022/03/17 02:26:02;;;;;;;;;;;;;;;2.78;100.00;101085.66;6244464;23;19920;-79
2022/03/17 02:28:28;;;;;;;;;;;;;;;2.68;100.00;101091.69;6244739;23;19912;-79
2022/03/17 02:30:54;;;;;;;;;;;;;;;2.60;100.00;101093.47;6217926;23;19961;-79
2022/03/17 02:33:20;;;;;;;;;;;;;;;2.52;100.00;101091.72;6217450;23;19922;-79
2022/03/17 02:35:45;;;;;;;;;;;;;;;2.49;100.00;101084.22;6244629;23;19916;-76
2022/03/17 02:38:13;;;;;;;;;;;;;;;2.46;100.00;101087.69;6244598;23;19925;-76
2022/03/17 02:40:39;;;;;;;;;;;;;;;2.49;100.00;101080.69;6244718;23;20340;-77
2022/03/17 02:43:05;;;;;;;;;;;;;;;2.51;100.00;101084.66;6243999;23;19915;-79
2022/03/17 02:45:30;;;;;;;;;;;;;;;2.44;100.00;101075.50;6216718;23;19939;-79
2022/03/17 02:47:56;;;;;;;;;;;;;;;2.35;100.00;101078.41;6244176;23;19934;-79
2022/03/17 02:50:22;;;;;;;;;;;;;;;2.26;100.00;101075.09;6244591;23;19961;-77
2022/03/17 02:52:47;;;;;;;;;;;;;;;2.19;100.00;101080.38;6244072;23;20002;-77
2022/03/17 02:55:14;;;;;;;;;;;;;;;2.21;100.00;101062.47;6244759;23;19927;-77
2022/03/17 02:57:40;;;;;;;;;;;;;;;2.20;100.00;101065.56;6243726;23;20010;-77
2022/03/17 03:00:06;;;;;;;;;;;;;;;2.15;99.73;101068.56;6216814;23;19953;-79
2022/03/17 03:02:32;;;;;;;;;;;;;;;2.06;100.00;101071.50;6242885;23;19942;-79
2022/03/17 03:04:57;;;;;;;;;;;;;;;2.02;100.00;101069.81;6243745;23;19915;-79
2022/03/17 03:07:23;;;;;;;;;;;;;;;2.02;100.00;101072.56;6244153;23;19911;-79
2022/03/17 03:09:48;;;;;;;;;;;;;;;2.01;100.00;101073.72;6243505;23;19916;-79
2022/03/17 03:12:13;;;;;;;;;;;;;;;1.99;100.00;101084.19;6217431;23;19919;-79
2022/03/17 03:14:39;;;;;;;;;;;;;;;2.00;100.00;101077.59;6243677;23;19915;-80
2022/03/17 03:17:06;;;;;;;;;;;;;;;1.96;100.00;101084.91;6244161;23;19930;-79
2022/03/17 03:19:31;;;;;;;;;;;;;;;1.93;100.00;101088.34;6244142;23;19912;-79
2022/03/17 03:21:57;;;;;;;;;;;;;;;1.94;100.00;101090.75;6217050;23;19954;-77
2022/03/17 03:24:22;;;;;;;;;;;;;;;1.98;100.00;101101.78;6244234;23;19919;-79
2022/03/17 03:26:48;;;;;;;;;;;;;;;1.96;100.00;101095.84;6243734;23;19916;-77
2022/03/17 03:29:28;;;;;;;;;;;;;;;1.94;100.00;101098.16;6243190;23;19919;-79
2022/03/17 03:31:57;;;;;;;;;;;;;;;1.93;100.00;101107.50;6243406;23;20006;-77
2022/03/17 03:34:23;;;;;;;;;;;;;;;1.88;100.00;101105.84;6243763;23;20356;-77
2022/03/17 03:39:33;;;;;;;;;;;;;;;1.70;100.00;101108.09;6244354;23;19942;-79
2022/03/17 03:41:58;;;;;;;;;;;;;;;1.67;100.00;101114.28;6243711;23;20342;-79
2022/03/17 03:44:23;;;;;;;;;;;;;;;1.65;100.00;101126.72;6243947;23;19916;-79
2022/03/17 03:46:49;;;;;;;;;;;;;;;1.62;100.00;101116.50;6243864;23;19974;-79
2022/03/17 03:49:14;;;;;;;;;;;;;;;1.57;100.00;101120.28;6243946;23;19923;-79
2022/03/17 03:51:40;;;;;;;;;;;;;;;1.52;100.00;101123.25;6242997;23;19969;-79
2022/03/17 03:54:17;;;;;;;;;;;;;;;1.49;100.00;101123.16;6216544;23;19995;-79
2022/03/17 03:56:43;;;;;;;;;;;;;;;1.45;100.00;101134.00;6243424;23;19916;-79
2022/03/17 03:59:12;;;;;;;;;;;;;;;1.36;100.00;101136.09;6243656;23;20061;-79
2022/03/17 04:01:38;;;;;;;;;;;;;;;1.34;100.00;101127.44;6243776;23;19915;-79
2022/03/17 04:04:03;;;;;;;;;;;;;;;1.30;100.00;101132.00;6243395;23;19915;-79
2022/03/17 04:06:29;;;;;;;;;;;;;;;1.26;100.00;101140.09;6243776;23;19916;-77
2022/03/17 04:08:55;;;;;;;;;;;;;;;1.22;100.00;101136.47;6243405;23;19922;-86
2022/03/17 04:11:20;;;;;;;;;;;;;;;1.24;100.00;101134.22;6243882;23;19916;-86
2022/03/17 04:13:46;;;;;;;;;;;;;;;1.23;100.00;101148.22;6243570;23;19916;-86
2022/03/17 04:16:11;;;;;;;;;;;;;;;1.24;100.00;101156.06;6191286;23;20237;-85
2022/03/17 04:18:37;;;;;;;;;;;;;;;1.27;100.00;101154.56;6243533;23;20227;-86
2022/03/17 04:21:02;;;;;;;;;;;;;;;1.37;100.00;101154.91;6243411;23;19916;-86
2022/03/17 04:23:27;;;;;;;;;;;;;;;1.44;100.00;101154.28;6243651;23;19922;-86
2022/03/17 04:25:53;;;;;;;;;;;;;;;1.38;100.00;101166.59;6241744;23;19919;-85
2022/03/17 04:28:18;;;;;;;;;;;;;;;1.38;100.00;101166.59;6243703;23;19911;-85
2022/03/17 04:30:45;;;;;;;;;;;;;;;1.35;100.00;101172.75;6243587;23;19923;-85
2022/03/17 04:33:10;;;;;;;;;;;;;;;1.36;100.00;101182.56;6243512;23;19924;-84
2022/03/17 04:35:35;;;;;;;;;;;;;;;1.42;100.00;101179.22;6243311;23;20439;-86
2022/03/17 04:38:01;;;;;;;;;;;;;;;1.45;100.00;101182.44;6243383;23;19919;-86
2022/03/17 04:40:26;;;;;;;;;;;;;;;1.48;100.00;101189.91;6243674;23;20007;-86
2022/03/17 04:42:51;;;;;;;;;;;;;;;1.47;100.00;101185.59;6243286;23;19922;-85
2022/03/17 04:45:17;;;;;;;;;;;;;;;1.48;100.00;101182.53;6242771;23;19920;-86
2022/03/17 04:47:42;;;;;;;;;;;;;;;1.54;100.00;101178.38;6243591;23;19916;-86
2022/03/17 04:50:08;;;;;;;;;;;;;;;1.57;100.00;101191.38;6243469;23;19916;-86
2022/03/17 04:55:18;;;;;;;;;;;;;;;1.73;100.00;101191.41;6243344;23;19938;-86
2022/03/17 04:57:43;;;;;;;;;;;;;;;1.77;100.00;101184.09;6243025;23;20345;-85
2022/03/17 05:00:09;;;;;;;;;;;;;;;1.75;100.00;101192.66;6243186;23;19916;-84
2022/03/17 05:02:35;;;;;;;;;;;;;;;1.70;100.00;101195.63;6243263;23;19947;-84
2022/03/17 05:05:01;;;;;;;;;;;;;;;1.71;100.00;101191.75;6243293;23;19923;-84
2022/03/17 05:07:28;;;;;;;;;;;;;;;1.72;100.00;101187.88;6243499;23;19915;-84
2022/03/17 05:09:54;;;;;;;;;;;;;;;1.72;100.00;101184.34;6243015;23;19968;-84
2022/03/17 05:12:19;;;;;;;;;;;;;;;1.66;100.00;101189.25;6216703;23;19986;-84
2022/03/17 05:14:44;;;;;;;;;;;;;;;1.66;100.00;101194.72;6242763;23;19916;-84
2022/03/17 05:17:10;;;;;;;;;;;;;;;1.67;100.00;101195.53;6243238;23;19919;-84
2022/03/17 05:19:35;;;;;;;;;;;;;;;1.69;100.00;101188.59;6242781;23;19915;-85
2022/03/17 05:22:01;;;;;;;;;;;;;;;1.72;100.00;101187.88;6243184;23;19935;-84
2022/03/17 05:24:26;;;;;;;;;;;;;;;1.79;100.00;101190.81;6244971;23;19915;-84
2022/03/17 05:26:54;;;;;;;;;;;;;;;1.85;100.00;101186.69;6245237;23;19926;-83
2022/03/17 05:29:19;;;;;;;;;;;;;;;1.91;100.00;101192.69;6217878;23;20218;-85
2022/03/17 05:31:45;;;;;;;;;;;;;;;1.96;100.00;101181.47;6245400;23;19994;-84
2022/03/17 05:34:10;;;;;;;;;;;;;;;2.01;100.00;101183.16;6244804;23;19923;-83
2022/03/17 05:36:35;;;;;;;;;;;;;;;2.10;100.00;101181.06;6245099;23;19925;-84
2022/03/17 05:39:02;;;;;;;;;;;;;;;2.19;100.00;101181.66;6244455;23;20396;-84
2022/03/17 05:41:27;;;;;;;;;;;;;;;2.27;100.00;101177.97;6218389;23;19947;-82
2022/03/17 05:43:53;;;;;;;;;;;;;;;2.39;100.00;101183.34;6240253;23;20344;-83
2022/03/17 05:46:19;;;;;;;;;;;;;;;2.47;100.00;101176.91;6242147;23;19923;-83
2022/03/17 05:48:44;;;;;;;;;;;;;;;2.57;100.00;101178.31;6242434;23;20046;-84
2022/03/17 05:51:09;;;;;;;;;;;;;;;2.67;100.00;101170.31;6242673;23;19919;-84
2022/03/17 05:53:35;;;;;;;;;;;;;;;2.76;100.00;101173.69;6213950;23;19911;-84
2022/03/17 05:56:00;;;;;;;;;;;;;;;2.86;100.00;101169.59;6240936;23;20010;-84
2022/03/17 05:58:26;;;;;;;;;;;;;;;2.94;100.00;101170.56;6189506;23;19994;-78
2022/03/17 06:00:51;;;;;;;;;;;;;;;3.05;100.00;101171.56;6213539;23;19919;-83
2022/03/17 06:03:17;;;;;;;;;;;;;;;3.12;100.00;101172.50;6240245;23;19922;-85
2022/03/17 06:05:43;;;;;;;;;;;;;;;3.16;100.00;101172.59;6240495;23;20344;-84
2022/03/17 06:08:08;;;;;;;;;;;;;;;3.23;100.00;101172.75;6240803;23;19922;-85
2022/03/17 06:10:34;;;;;;;;;;;;;;;3.26;100.00;101181.06;6213988;23;19920;-84
2022/03/17 06:13:03;;;;;;;;;;;;;;;3.31;100.00;101182.72;6240576;23;19919;-84
2022/03/17 06:15:29;;;;;;;;;;;;;;;3.36;100.00;101181.66;6217286;23;19916;-84
2022/03/17 06:17:55;;;;;;;;;;;;;;;3.45;100.00;101191.22;6215437;23;19922;-85
2022/03/17 06:20:23;;;;;;;;;;;;;;;3.53;100.00;101186.69;6216196;23;19916;-84
2022/03/17 06:22:50;;;;;;;;;;;;;;;3.54;100.00;101194.56;6217934;23;19969;-88
2022/03/17 06:25:16;;;;;;;;;;;;;;;3.50;100.00;101201.91;6244009;23;19947;-88
2022/03/17 06:27:43;;;;;;;;;;;;;;;3.47;100.00;101208.13;6216746;23;20005;-90
2022/03/17 06:30:09;;;;;;;;;;;;;;;3.42;100.00;101205.69;6216529;23;19923;-90
2022/03/17 06:32:35;;;;;;;;;;;;;;;3.41;100.00;101204.06;6244142;23;19968;-88
2022/03/17 06:35:00;;;;;;;;;;;;;;;3.41;100.00;101201.34;6243945;23;19923;-83
2022/03/17 06:37:26;;;;;;;;;;;;;;;3.40;100.00;101197.00;6217607;23;19970;-83
2022/03/17 06:39:53;;;;;;;;;;;;;;;3.44;100.00;101197.09;6244197;23;20368;-84
2022/03/17 06:42:19;;;;;;;;;;;;;;;3.48;100.00;101201.47;6244466;23;19920;-83
2022/03/17 06:44:44;;;;;;;;;;;;;;;3.55;100.00;101201.63;6216552;23;19915;-82
2022/03/17 06:47:09;;;;;;;;;;;;;;;3.60;100.00;101193.09;6242109;23;19919;-83
2022/03/17 06:49:35;;;;;;;;;;;;;;;3.67;100.00;101198.75;6216295;23;19916;-83
2022/03/17 06:52:00;;;;;;;;;;;;;;;3.67;100.00;101206.19;6216590;23;19915;-83
2022/03/17 06:54:25;;;;;;;;;;;;;;;3.66;100.00;101202.63;6242114;23;20257;-83
2022/03/17 06:56:51;;;;;;;;;;;;;;;3.74;100.00;101204.38;6243517;23;19915;-83
2022/03/17 06:59:16;;;;;;;;;;;;;;;3.91;100.00;101203.13;6243540;23;20258;-83
2022/03/17 07:01:42;;;;;;;;;;;;;;;4.08;100.00;101207.34;6242716;23;19911;-83
2022/03/17 07:04:07;;;;;;;;;;;;;;;4.24;100.00;101205.28;6243595;23;19919;-83
2022/03/17 07:06:32;;;;;;;;;;;;;;;4.42;100.00;101197.34;6244437;23;20421;-83
2022/03/17 07:08:58;;;;;;;;;;;;;;;4.65;100.00;101204.38;6242230;23;19916;-83
2022/03/17 07:11:23;;;;;;;;;;;;;;;4.82;100.00;101203.09;6243717;23;20345;-83
2022/03/17 07:13:49;;;;;;;;;;;;;;;4.96;100.00;101202.50;6243065;23;19915;-83
2022/03/17 07:16:14;;;;;;;;;;;;;;;5.11;100.00;101204.28;6217234;23;20351;-83
2022/03/17 07:18:40;;;;;;;;;;;;;;;5.23;100.00;101206.81;6243924;23;19923;-83
2022/03/17 07:21:05;;;;;;;;;;;;;;;5.32;100.00;101198.28;6244300;23;20223;-83
2022/03/17 07:23:31;;;;;;;;;;;;;;;5.45;100.00;101205.16;6244015;23;20364;-83
2022/03/17 07:25:56;;;;;;;;;;;;;;;5.56;100.00;101208.81;6244136;23;19922;-80
2022/03/17 07:28:22;;;;;;;;;;;;;;;5.75;98.09;101213.38;6243522;23;19915;-80
2022/03/17 07:30:47;;;;;;;;;;;;;;;5.88;96.57;101214.72;6244378;23;19915;-80
2022/03/17 07:33:13;;;;;;;;;;;;;;;6.01;96.13;101221.56;6243231;23;19986;-80
2022/03/17 07:35:39;;;;;;;;;;;;;;;6.20;94.26;101217.81;6244155;23;19915;-81
2022/03/17 07:38:05;;;;;;;;;;;;;;;6.39;91.83;101223.13;6243717;23;19917;-80
2022/03/17 07:40:31;;;;;;;;;;;;;;;6.55;91.14;101218.94;6244052;23;19919;-80
2022/03/17 07:42:56;;;;;;;;;;;;;;;6.81;87.94;101211.66;6243641;23;19969;-80
2022/03/17 07:45:25;;;;;;;;;;;;;;;6.98;86.98;101219.28;6244281;23;19922;-80
2022/03/17 07:48:28;;;;;;;;;;;;;;;7.12;85.42;101230.38;6243822;23;19915;-80
2022/03/17 07:51:00;;;;;;;;;;;;;;;7.27;82.80;101223.78;6243999;23;19925;-80
2022/03/17 07:53:25;;;;;;;;;;;;;;;7.42;81.12;101217.16;6243981;23;19951;-80
2022/03/17 07:55:54;;;;;;;;;;;;;;;7.52;80.35;101210.13;6243562;23;19931;-80
2022/03/17 07:58:24;;;;;;;;;;;;;;;7.70;80.48;101212.94;6243935;23;20000;-80
2022/03/17 08:00:53;;;;;;;;;;;;;;;7.87;79.67;101223.25;6243838;23;19916;-81
2022/03/17 08:03:19;;;;;;;;;;;;;;;8.06;76.68;101222.91;6191176;23;19997;-80
2022/03/17 08:05:46;;;;;;;;;;;;;;;8.16;76.78;101219.41;6217471;23;19915;-81
2022/03/17 08:08:12;;;;;;;;;;;;;;;8.36;76.17;101208.78;6217109;23;19919;-81
2022/03/17 08:10:37;;;;;;;;;;;;;;;8.54;75.21;101217.88;6217134;23;19938;-81
2022/03/17 08:13:05;;;;;;;;;;;;;;;8.69;74.54;101215.91;6243265;23;20378;-81
2022/03/17 08:15:30;;;;;;;;;;;;;;;8.81;72.65;101215.50;6244106;23;20353;-81
2022/03/17 08:17:56;;;;;;;;;;;;;;;8.93;70.46;101215.09;6243356;23;19966;-81
2022/03/17 08:20:23;;;;;;;;;;;;;;;9.09;71.30;101215.47;6243669;23;19920;-81
2022/03/17 08:22:49;;;;;;;;;;;;;;;9.23;69.30;101212.66;6243396;23;19916;-81
2022/03/17 08:25:15;;;;;;;;;;;;;;;9.24;69.21;101216.22;6243295;23;20344;-81
2022/03/17 08:27:42;;;;;;;;;;;;;;;9.29;68.63;101227.69;6244007;23;19977;-81
2022/03/17 08:30:07;;;;;;;;;;;;;;;9.50;69.42;101229.63;6243310;23;19915;-81
2022/03/17 08:32:33;;;;;;;;;;;;;;;9.63;69.17;101216.09;6243231;23;19950;-81
2022/03/17 08:34:59;;;;;;;;;;;;;;;9.58;67.11;101233.16;6243224;23;19923;-81
2022/03/17 08:37:24;;;;;;;;;;;;;;;9.65;67.19;101231.13;6243553;23;19969;-81
2022/03/17 08:39:49;;;;;;;;;;;;;;;9.65;65.29;101233.91;6243468;23;19962;-81
2022/03/17 08:42:15;;;;;;;;;;;;;;;9.80;64.86;101243.72;6243166;23;20277;-81
2022/03/17 08:44:40;;;;;;;;;;;;;;;9.68;63.65;101240.59;6243366;23;19919;-89
2022/03/17 08:49:50;;;;;;;;;;;;;;;9.82;65.00;101244.13;6243543;23;19958;-89
2022/03/17 08:52:15;;;;;;;;;;;;;;;9.91;64.91;101231.81;6243466;23;19912;-90
2022/03/17 08:54:42;;;;;;;;;;;;;;;9.98;64.43;101238.13;6243235;23;19919;-89
2022/03/17 08:57:07;;;;;;;;;;;;;;;10.07;64.42;101246.75;6243524;23;19916;-89
2022/03/17 08:59:34;;;;;;;;;;;;;;;10.09;64.08;101249.94;6245478;23;19964;-90
2022/03/17 09:02:12;;;;;;;;;;;;;;;10.10;64.74;101257.06;6244386;23;19930;-89
2022/03/17 09:04:38;;;;;;;;;;;;;;;10.02;63.74;101260.25;6245490;23;19922;-90
2022/03/17 09:07:03;;;;;;;;;;;;;;;10.26;63.78;101253.81;6245459;23;19915;-90
2022/03/17 09:09:29;;;;;;;;;;;;;;;10.26;63.88;101260.16;6245721;23;19916;-90
2022/03/17 09:11:54;;;;;;;;;;;;;;;10.35;63.11;101261.69;6244738;23;19915;-90
2022/03/17 09:14:21;;;;;;;;;;;;;;;10.32;62.78;101262.47;6245416;23;19994;-90
2022/03/17 09:16:46;;;;;;;;;;;;;;;10.42;62.60;101262.44;6245687;23;19962;-90
2022/03/17 09:19:11;;;;;;;;;;;;;;;10.37;61.66;101265.63;6245420;23;19923;-91
2022/03/17 09:21:37;;;;;;;;;;;;;;;10.14;61.05;101285.56;6243799;23;20013;-91
2022/03/17 09:24:03;;;;;;;;;;;;;;;10.20;60.14;101272.06;6244723;23;19923;-90
2022/03/17 09:26:29;;;;;;;;;;;;;;;10.11;59.92;101280.03;6245423;23;19950;-91
2022/03/17 09:28:55;;;;;;;;;;;;;;;10.08;60.97;101283.59;6245362;23;19922;-90
2022/03/17 09:31:20;;;;;;;;;;;;;;;10.16;59.94;101287.94;6218940;23;20723;-90
2022/03/17 09:33:46;;;;;;;;;;;;;;;10.16;59.79;101297.03;6244852;23;20281;-91
2022/03/17 09:36:11;;;;;;;;;;;;;;;10.12;59.99;101293.47;6245358;23;19919;-90
2022/03/17 09:38:37;;;;;;;;;;;;;;;10.08;60.31;101283.59;6245354;23;20325;-90
2022/03/17 09:41:23;;;;;;;;;;;;;;;10.20;59.99;101283.16;6245258;23;19915;-90
2022/03/17 09:43:47;;;;;;;;;;;;;;;10.32;59.79;101293.00;6222723;23;19915;-90
2022/03/17 09:46:13;;;;;;;;;;;;;;;10.24;59.62;101293.03;6245044;23;19916;-90
2022/03/17 09:48:38;;;;;;;;;;;;;;;10.13;60.33;101300.59;6244875;23;19915;-91
2022/03/17 09:51:04;;;;;;;;;;;;;;;10.05;60.13;101304.59;6217716;23;19916;-90
2022/03/17 09:53:31;;;;;;;;;;;;;;;10.25;60.18;101299.38;6243692;23;19915;-89
2022/03/17 09:55:56;;;;;;;;;;;;;;;10.32;58.93;101293.00;6245229;23;19990;-90
2022/03/17 09:58:22;;;;;;;;;;;;;;;10.37;58.28;101298.91;6244829;23;19943;-90
2022/03/17 10:00:47;;;;;;;;;;;;;;;10.27;59.39;101308.88;6193319;23;19938;-91
2022/03/17 10:03:14;;;;;;;;;;;;;;;10.33;60.14;101298.16;6244265;23;20540;-91
2022/03/17 10:05:39;;;;;;;;;;;;;;;10.42;58.74;101300.47;6192596;23;19977;-90
2022/03/17 10:08:05;;;;;;;;;;;;;;;10.53;58.92;101285.34;6242438;23;20277;-90
2022/03/17 10:10:37;;;;;;;;;;;;;;;10.65;57.46;101286.84;6245000;23;19962;-90
2022/03/17 10:13:14;;;;;;;;;;;;;;;10.70;55.08;101283.66;6244510;23;19916;-90
2022/03/17 10:15:39;;;;;;;;;;;;;;;10.77;53.35;101298.25;6245085;23;19916;-91
2022/03/17 10:18:17;;;;;;;;;;;;;;;10.73;53.26;101300.25;6244926;23;19915;-90
2022/03/17 10:20:42;;;;;;;;;;;;;;;10.67;51.94;101301.13;6244480;23;19922;-89
2022/03/17 10:23:08;;;;;;;;;;;;;;;10.58;52.27;101296.03;6244492;23;19916;-89
2022/03/17 10:25:34;;;;;;;;;;;;;;;10.53;51.92;101301.19;6217330;23;19922;-89
2022/03/17 10:28:01;;;;;;;;;;;;;;;10.34;51.60;101308.06;6243159;23;19994;-89
2022/03/17 10:30:33;;;;;;;;;;;;;;;10.29;52.97;101308.47;6244457;23;19970;-90
2022/03/17 10:33:01;;;;;;;;;;;;;;;10.39;52.14;101307.63;6218605;23;20258;-90
2022/03/17 10:35:31;;;;;;;;;;;;;;;10.35;52.61;101300.53;6243775;23;19915;-89
2022/03/17 10:37:56;;;;;;;;;;;;;;;10.50;51.80;101299.25;6244046;23;20292;-89
2022/03/17 10:40:28;;;;;;;;;;;;;;;10.55;51.71;101296.84;6243918;23;19919;-90
2022/03/17 10:42:53;;;;;;;;;;;;;;;10.63;51.30;101300.34;6244211;23;19939;-90
2022/03/17 10:45:18;;;;;;;;;;;;;;;10.82;51.93;101297.03;6243745;23;19919;-91
2022/03/17 10:47:44;;;;;;;;;;;;;;;10.84;51.80;101300.16;6244103;23;19919;-89
2022/03/17 10:50:11;;;;;;;;;;;;;;;10.96;51.23;101302.47;6217205;23;20257;-89
2022/03/17 10:52:53;;;;;;;;;;;;;;;10.86;50.80;101297.00;6217395;23;19915;-89
2022/03/17 10:55:19;;;;;;;;;;;;;;;11.07;51.48;101300.41;6217602;23;20292;-89
2022/03/17 10:57:45;;;;;;;;;;;;;;;11.29;50.16;101302.97;6217579;23;19941;-89
2022/03/17 11:00:23;;;;;;;;;;;;;;;11.69;50.19;101293.81;6217330;23;20038;-90
2022/03/17 11:02:49;;;;;;;;;;;;;;;11.58;48.97;101299.50;6244329;23;19985;-90
2022/03/17 11:05:16;;;;;;;;;;;;;;;12.01;48.20;101296.28;6244185;23;20019;-90
2022/03/17 11:07:43;;;;;;;;;;;;;;;12.14;47.03;101292.50;6244439;23;19916;-90
2022/03/17 11:10:09;;;;;;;;;;;;;;;12.26;46.87;101293.94;6217700;23;19918;-91
2022/03/17 11:12:34;;;;;;;;;;;;;;;12.62;46.51;101297.00;6244755;23;19951;-90
2022/03/17 11:15:01;;;;;;;;;;;;;;;12.73;45.38;101294.06;6217436;23;20381;-89
2022/03/17 11:17:29;;;;;;;;;;;;;;;12.89;44.63;101286.63;6244411;23;20508;-89
2022/03/17 11:19:54;;;;;;;;;;;;;;;12.92;44.05;101280.22;6217248;23;19915;-89
2022/03/17 11:22:23;;;;;;;;;;;;;;;12.99;44.07;101284.88;6166761;23;19923;-89
2022/03/17 11:25:08;;;;;;;;;;;;;;;12.50;44.49;101289.22;6192244;23;20348;-90
2022/03/17 11:27:43;;;;;;;;;;;;;;;12.57;46.70;101286.34;6244320;23;20341;-91
2022/03/17 11:30:11;;;;;;;;;;;;;;;12.74;44.76;101279.69;6244095;23;19915;-90
2022/03/17 11:32:37;;;;;;;;;;;;;;;12.89;44.36;101269.13;6217967;23;19912;-89
2022/03/17 11:35:07;;;;;;;;;;;;;;;12.77;43.79;101276.09;6243669;23;20250;-89
2022/03/17 11:37:33;;;;;;;;;;;;;;;12.83;43.64;101282.75;6244273;23;19916;-89
2022/03/17 11:40:03;;;;;;;;;;;;;;;12.76;45.27;101266.16;6217290;23;19918;-89
2022/03/17 11:42:40;;;;;;;;;;;;;;;13.10;43.05;101274.38;6244360;23;19949;-91
2022/03/17 11:45:17;;;;;;;;;;;;;;;13.34;42.61;101273.16;6243575;23;19922;-90
2022/03/17 11:47:43;;;;;;;;;;;;;;;13.29;41.82;101267.28;6244227;23;19916;-91
2022/03/17 11:50:22;;;;;;;;;;;;;;;13.38;42.30;101262.72;6215773;23;20223;-90
2022/03/17 11:53:10;;;;;;;;;;;;;;;13.48;40.67;101260.94;6242148;23;19998;-90
2022/03/17 11:55:38;;;;;;;;;;;;;;;13.48;40.83;101255.34;6181884;23;19920;-89
2022/03/17 11:58:19;;;;;;;;;;;;;;;13.59;42.29;101258.72;6242399;23;19947;-89
2022/03/17 12:01:04;;;;;;;;;;;;;;;13.40;41.80;101254.72;6242302;23;19935;-90
2022/03/17 12:03:37;;;;;;;;;;;;;;;13.09;41.21;101256.06;6217216;23;19922;-92
2022/03/17 12:06:13;;;;;;;;;;;;;;;12.49;41.88;101257.84;6214638;23;19950;-92
2022/03/17 12:08:42;;;;;;;;;;;;;;;12.17;43.32;101259.50;6243210;23;19970;-91
2022/03/17 12:11:13;;;;;;;;;;;;;;;12.48;42.68;101258.25;6216974;23;20320;-90
2022/03/17 12:13:38;;;;;;;;;;;;;;;12.27;42.61;101259.34;6216512;23;19923;-90
2022/03/17 12:16:04;;;;;;;;;;;;;;;12.59;43.81;101250.53;6214155;23;19919;-91
2022/03/17 12:18:30;;;;;;;;;;;;;;;12.75;41.12;101253.44;6241938;23;19916;-90
2022/03/17 12:20:57;;;;;;;;;;;;;;;12.29;41.91;101258.94;6242015;23;20363;-90
2022/03/17 12:23:41;;;;;;;;;;;;;;;12.15;42.10;101260.69;6191672;23;20481;-91
2022/03/17 12:26:06;;;;;;;;;;;;;;;12.24;42.57;101256.63;6243085;23;20364;-90
2022/03/17 12:28:31;;;;;;;;;;;;;;;12.53;42.11;101257.78;6243553;22;19911;-90
2022/03/17 12:30:57;;;;;;;;;;;;;;;12.71;41.17;101238.78;6242400;23;19915;-90
2022/03/17 12:33:23;;;;;;;;;;;;;;;12.70;40.43;101242.78;6217781;23;20009;-90
2022/03/17 12:35:50;;;;;;;;;;;;;;;12.55;40.00;101256.16;6218817;23;19912;-90
2022/03/17 12:38:18;;;;;;;;;;;;;;;12.36;41.27;101240.16;6218595;23;19915;-89
2022/03/17 12:40:44;;;;;;;;;;;;;;;12.56;41.03;101241.03;6217203;23;19912;-90
2022/03/17 12:43:10;;;;;;;;;;;;;;;12.64;40.85;101247.25;6243739;23;19926;-83
2022/03/17 12:45:36;;;;;;;;;;;;;;;12.82;40.27;101247.75;6244808;23;19920;-91
2022/03/17 12:48:02;;;;;;;;;;;;;;;12.95;39.95;101234.81;6217812;23;20243;-90
2022/03/17 12:50:28;;;;;;;;;;;;;;;12.96;39.95;101238.38;6244965;23;20338;-91
2022/03/17 12:52:54;;;;;;;;;;;;;;;12.83;40.06;101242.97;6219198;23;19916;-89